sensor_id;sensor_type;location;lat;lon;timestamp;P1;durP1;ratioP1;P2;durP2;ratioP2
61962;SDS011;47927;42.646;23.096;2023-07-29T00:01:50;5.10;;;2.13;;
61962;SDS011;47927;42.646;23.096;2023-07-29T00:04:16;3.42;;;1.92;;
61962;SDS011;47927;42.646;23.096;2023-07-29T00:06:42;3.50;;;2.03;;
61962;SDS011;47927;42.646;23.096;2023-07-29T00:09:07;3.67;;;2.03;;
61962;SDS011;47927;42.646;23.096;2023-07-29T00:11:33;8.45;;;1.95;;
61962;SDS011;47927;42.646;23.096;2023-07-29T00:14:01;3.28;;;2.00;;
61962;SDS011;47927;42.646;23.096;2023-07-29T00:16:27;4.28;;;1.85;;
61962;SDS011;47927;42.646;23.096;2023-07-29T00:18:53;4.28;;;1.83;;
61962;SDS011;47927;42.646;23.096;2023-07-29T00:21:18;6.10;;;2.40;;
61962;SDS011;47927;42.646;23.096;2023-07-29T00:23:44;3.42;;;2.10;;
61962;SDS011;47927;42.646;23.096;2023-07-29T00:26:10;3.63;;;2.05;;
61962;SDS011;47927;42.646;23.096;2023-07-29T00:28:36;3.65;;;2.05;;
61962;SDS011;47927;42.646;23.096;2023-07-29T00:31:01;2.95;;;1.73;;
61962;SDS011;47927;42.646;23.096;2023-07-29T00:33:27;4.13;;;2.10;;
61962;SDS011;47927;42.646;23.096;2023-07-29T00:35:53;4.15;;;2.22;;
61962;SDS011;47927;42.646;23.096;2023-07-29T00:38:18;3.30;;;1.85;;
61962;SDS011;47927;42.646;23.096;2023-07-29T00:41:02;3.10;;;1.88;;
61962;SDS011;47927;42.646;23.096;2023-07-29T00:43:28;4.47;;;2.13;;
61962;SDS011;47927;42.646;23.096;2023-07-29T00:45:54;3.90;;;2.03;;
61962;SDS011;47927;42.646;23.096;2023-07-29T00:48:22;3.10;;;2.00;;
61962;SDS011;47927;42.646;23.096;2023-07-29T00:50:49;4.63;;;2.17;;
61962;SDS011;47927;42.646;23.096;2023-07-29T00:53:15;3.70;;;1.88;;
61962;SDS011;47927;42.646;23.096;2023-07-29T00:55:42;3.45;;;2.17;;
61962;SDS011;47927;42.646;23.096;2023-07-29T00:58:08;3.75;;;2.47;;
61962;SDS011;47927;42.646;23.096;2023-07-29T01:00:33;4.78;;;2.10;;
61962;SDS011;47927;42.646;23.096;2023-07-29T01:03:02;5.25;;;2.30;;
61962;SDS011;47927;42.646;23.096;2023-07-29T01:05:30;4.22;;;2.17;;
61962;SDS011;47927;42.646;23.096;2023-07-29T01:08:21;3.30;;;1.92;;
61962;SDS011;47927;42.646;23.096;2023-07-29T01:13:50;3.60;;;2.20;;
61962;SDS011;47927;42.646;23.096;2023-07-29T01:16:31;3.00;;;1.95;;
61962;SDS011;47927;42.646;23.096;2023-07-29T01:19:21;3.78;;;2.17;;
61962;SDS011;47927;42.646;23.096;2023-07-29T01:21:56;3.78;;;2.25;;
61962;SDS011;47927;42.646;23.096;2023-07-29T01:24:23;6.07;;;2.28;;
61962;SDS011;47927;42.646;23.096;2023-07-29T01:26:48;3.20;;;1.90;;
61962;SDS011;47927;42.646;23.096;2023-07-29T01:29:14;3.88;;;2.03;;
61962;SDS011;47927;42.646;23.096;2023-07-29T01:31:42;3.72;;;2.00;;
61962;SDS011;47927;42.646;23.096;2023-07-29T01:34:13;3.25;;;1.77;;
61962;SDS011;47927;42.646;23.096;2023-07-29T01:36:50;5.22;;;2.20;;
61962;SDS011;47927;42.646;23.096;2023-07-29T01:39:18;5.38;;;2.45;;
61962;SDS011;47927;42.646;23.096;2023-07-29T01:41:47;4.28;;;2.28;;
61962;SDS011;47927;42.646;23.096;2023-07-29T01:44:13;4.40;;;2.33;;
61962;SDS011;47927;42.646;23.096;2023-07-29T01:46:40;3.60;;;2.03;;
61962;SDS011;47927;42.646;23.096;2023-07-29T01:49:06;3.97;;;2.47;;
61962;SDS011;47927;42.646;23.096;2023-07-29T01:51:31;6.15;;;2.63;;
61962;SDS011;47927;42.646;23.096;2023-07-29T01:53:57;3.40;;;1.92;;
61962;SDS011;47927;42.646;23.096;2023-07-29T01:56:25;3.40;;;1.98;;
61962;SDS011;47927;42.646;23.096;2023-07-29T01:58:53;4.40;;;2.63;;
61962;SDS011;47927;42.646;23.096;2023-07-29T02:01:19;7.88;;;2.47;;
61962;SDS011;47927;42.646;23.096;2023-07-29T02:03:45;4.20;;;2.45;;
61962;SDS011;47927;42.646;23.096;2023-07-29T02:06:11;5.50;;;2.22;;
61962;SDS011;47927;42.646;23.096;2023-07-29T02:08:37;5.07;;;2.10;;
61962;SDS011;47927;42.646;23.096;2023-07-29T02:11:06;4.85;;;1.90;;
61962;SDS011;47927;42.646;23.096;2023-07-29T02:13:31;4.00;;;2.10;;
61962;SDS011;47927;42.646;23.096;2023-07-29T02:15:57;5.55;;;2.33;;
61962;SDS011;47927;42.646;23.096;2023-07-29T02:18:22;4.95;;;2.60;;
61962;SDS011;47927;42.646;23.096;2023-07-29T02:20:48;5.38;;;2.60;;
61962;SDS011;47927;42.646;23.096;2023-07-29T02:23:15;3.83;;;2.05;;
61962;SDS011;47927;42.646;23.096;2023-07-29T02:25:42;4.38;;;2.00;;
61962;SDS011;47927;42.646;23.096;2023-07-29T02:28:07;4.80;;;2.45;;
61962;SDS011;47927;42.646;23.096;2023-07-29T02:30:33;4.55;;;2.28;;
61962;SDS011;47927;42.646;23.096;2023-07-29T02:32:59;3.65;;;2.00;;
61962;SDS011;47927;42.646;23.096;2023-07-29T02:35:26;3.85;;;2.00;;
61962;SDS011;47927;42.646;23.096;2023-07-29T02:37:52;5.80;;;2.35;;
61962;SDS011;47927;42.646;23.096;2023-07-29T02:40:21;6.20;;;2.40;;
61962;SDS011;47927;42.646;23.096;2023-07-29T02:42:48;3.58;;;2.10;;
61962;SDS011;47927;42.646;23.096;2023-07-29T02:45:13;4.05;;;2.22;;
61962;SDS011;47927;42.646;23.096;2023-07-29T02:47:39;4.28;;;2.28;;
61962;SDS011;47927;42.646;23.096;2023-07-29T02:50:04;5.00;;;1.83;;
61962;SDS011;47927;42.646;23.096;2023-07-29T02:52:30;3.47;;;2.13;;
61962;SDS011;47927;42.646;23.096;2023-07-29T02:54:56;3.58;;;2.03;;
61962;SDS011;47927;42.646;23.096;2023-07-29T02:57:21;3.75;;;2.25;;
61962;SDS011;47927;42.646;23.096;2023-07-29T03:00:06;3.42;;;2.20;;
61962;SDS011;47927;42.646;23.096;2023-07-29T03:02:33;3.58;;;2.00;;
61962;SDS011;47927;42.646;23.096;2023-07-29T03:04:59;4.28;;;2.50;;
61962;SDS011;47927;42.646;23.096;2023-07-29T03:07:24;4.40;;;2.30;;
61962;SDS011;47927;42.646;23.096;2023-07-29T03:09:50;4.88;;;2.03;;
61962;SDS011;47927;42.646;23.096;2023-07-29T03:12:16;3.95;;;2.15;;
61962;SDS011;47927;42.646;23.096;2023-07-29T03:14:42;4.55;;;2.58;;
61962;SDS011;47927;42.646;23.096;2023-07-29T03:17:07;3.88;;;2.13;;
61962;SDS011;47927;42.646;23.096;2023-07-29T03:19:33;4.75;;;2.50;;
61962;SDS011;47927;42.646;23.096;2023-07-29T03:21:59;4.47;;;2.42;;
61962;SDS011;47927;42.646;23.096;2023-07-29T03:24:24;8.27;;;2.63;;
61962;SDS011;47927;42.646;23.096;2023-07-29T03:26:50;4.55;;;2.60;;
61962;SDS011;47927;42.646;23.096;2023-07-29T03:29:15;4.55;;;2.38;;
61962;SDS011;47927;42.646;23.096;2023-07-29T03:31:41;5.15;;;2.58;;
61962;SDS011;47927;42.646;23.096;2023-07-29T03:34:06;4.30;;;2.70;;
61962;SDS011;47927;42.646;23.096;2023-07-29T03:36:32;6.47;;;2.47;;
61962;SDS011;47927;42.646;23.096;2023-07-29T03:38:58;3.53;;;2.10;;
61962;SDS011;47927;42.646;23.096;2023-07-29T03:41:24;5.63;;;2.60;;
61962;SDS011;47927;42.646;23.096;2023-07-29T03:43:49;3.72;;;2.55;;
61962;SDS011;47927;42.646;23.096;2023-07-29T03:46:15;4.15;;;2.17;;
61962;SDS011;47927;42.646;23.096;2023-07-29T03:48:45;6.93;;;2.55;;
61962;SDS011;47927;42.646;23.096;2023-07-29T03:51:11;3.88;;;2.28;;
61962;SDS011;47927;42.646;23.096;2023-07-29T03:53:36;3.67;;;2.40;;
61962;SDS011;47927;42.646;23.096;2023-07-29T03:56:02;3.92;;;2.20;;
61962;SDS011;47927;42.646;23.096;2023-07-29T03:58:27;4.30;;;2.60;;
61962;SDS011;47927;42.646;23.096;2023-07-29T04:00:53;4.82;;;2.28;;
61962;SDS011;47927;42.646;23.096;2023-07-29T04:03:18;4.10;;;2.60;;
61962;SDS011;47927;42.646;23.096;2023-07-29T04:05:45;4.32;;;2.42;;
61962;SDS011;47927;42.646;23.096;2023-07-29T04:08:10;4.25;;;2.17;;
61962;SDS011;47927;42.646;23.096;2023-07-29T04:10:36;4.18;;;2.28;;
61962;SDS011;47927;42.646;23.096;2023-07-29T04:13:03;5.03;;;2.72;;
61962;SDS011;47927;42.646;23.096;2023-07-29T04:15:29;3.20;;;2.08;;
61962;SDS011;47927;42.646;23.096;2023-07-29T04:17:55;3.67;;;2.15;;
61962;SDS011;47927;42.646;23.096;2023-07-29T04:20:21;3.85;;;2.20;;
61962;SDS011;47927;42.646;23.096;2023-07-29T04:22:46;3.03;;;2.08;;
61962;SDS011;47927;42.646;23.096;2023-07-29T04:25:12;3.55;;;2.40;;
61962;SDS011;47927;42.646;23.096;2023-07-29T04:27:38;6.00;;;2.20;;
61962;SDS011;47927;42.646;23.096;2023-07-29T04:30:04;4.30;;;1.98;;
61962;SDS011;47927;42.646;23.096;2023-07-29T04:32:30;3.95;;;2.10;;
61962;SDS011;47927;42.646;23.096;2023-07-29T04:34:56;3.88;;;2.30;;
61962;SDS011;47927;42.646;23.096;2023-07-29T04:37:21;3.30;;;1.90;;
61962;SDS011;47927;42.646;23.096;2023-07-29T04:39:47;3.35;;;2.15;;
61962;SDS011;47927;42.646;23.096;2023-07-29T04:42:13;6.57;;;2.15;;
61962;SDS011;47927;42.646;23.096;2023-07-29T04:44:39;5.32;;;2.53;;
61962;SDS011;47927;42.646;23.096;2023-07-29T04:47:07;3.28;;;1.83;;
61962;SDS011;47927;42.646;23.096;2023-07-29T04:49:32;4.22;;;1.90;;
61962;SDS011;47927;42.646;23.096;2023-07-29T04:51:58;4.78;;;2.20;;
61962;SDS011;47927;42.646;23.096;2023-07-29T04:54:23;4.43;;;2.28;;
61962;SDS011;47927;42.646;23.096;2023-07-29T04:56:49;4.40;;;2.08;;
61962;SDS011;47927;42.646;23.096;2023-07-29T04:59:16;7.18;;;2.42;;
61962;SDS011;47927;42.646;23.096;2023-07-29T05:01:42;3.67;;;2.30;;
61962;SDS011;47927;42.646;23.096;2023-07-29T05:04:08;5.53;;;2.75;;
61962;SDS011;47927;42.646;23.096;2023-07-29T05:06:34;3.58;;;2.30;;
61962;SDS011;47927;42.646;23.096;2023-07-29T05:09:11;7.30;;;3.08;;
61962;SDS011;47927;42.646;23.096;2023-07-29T05:11:41;6.15;;;3.00;;
61962;SDS011;47927;42.646;23.096;2023-07-29T05:14:11;11.82;;;3.55;;
61962;SDS011;47927;42.646;23.096;2023-07-29T05:16:38;6.95;;;3.70;;
61962;SDS011;47927;42.646;23.096;2023-07-29T05:19:04;6.40;;;3.50;;
61962;SDS011;47927;42.646;23.096;2023-07-29T05:21:29;12.25;;;4.90;;
61962;SDS011;47927;42.646;23.096;2023-07-29T05:23:55;8.25;;;4.13;;
61962;SDS011;47927;42.646;23.096;2023-07-29T05:26:21;11.00;;;4.50;;
61962;SDS011;47927;42.646;23.096;2023-07-29T05:28:47;13.95;;;4.20;;
61962;SDS011;47927;42.646;23.096;2023-07-29T05:31:12;12.82;;;4.30;;
61962;SDS011;47927;42.646;23.096;2023-07-29T05:33:38;12.00;;;4.95;;
61962;SDS011;47927;42.646;23.096;2023-07-29T05:36:05;13.52;;;4.30;;
61962;SDS011;47927;42.646;23.096;2023-07-29T05:38:31;10.10;;;4.13;;
61962;SDS011;47927;42.646;23.096;2023-07-29T05:40:56;10.30;;;4.40;;
61962;SDS011;47927;42.646;23.096;2023-07-29T05:43:23;8.93;;;4.10;;
61962;SDS011;47927;42.646;23.096;2023-07-29T05:45:49;10.10;;;4.50;;
61962;SDS011;47927;42.646;23.096;2023-07-29T05:48:16;7.10;;;3.90;;
61962;SDS011;47927;42.646;23.096;2023-07-29T05:50:43;10.77;;;4.13;;
61962;SDS011;47927;42.646;23.096;2023-07-29T05:53:09;10.10;;;4.53;;
61962;SDS011;47927;42.646;23.096;2023-07-29T05:55:35;10.77;;;4.60;;
61962;SDS011;47927;42.646;23.096;2023-07-29T05:58:00;7.90;;;3.55;;
61962;SDS011;47927;42.646;23.096;2023-07-29T06:00:26;12.38;;;4.22;;
61962;SDS011;47927;42.646;23.096;2023-07-29T06:02:52;13.50;;;4.57;;
61962;SDS011;47927;42.646;23.096;2023-07-29T06:05:20;9.75;;;4.13;;
61962;SDS011;47927;42.646;23.096;2023-07-29T06:07:45;9.45;;;3.83;;
61962;SDS011;47927;42.646;23.096;2023-07-29T06:10:13;8.60;;;4.15;;
61962;SDS011;47927;42.646;23.096;2023-07-29T06:12:44;7.40;;;3.50;;
61962;SDS011;47927;42.646;23.096;2023-07-29T06:15:10;6.75;;;4.03;;
61962;SDS011;47927;42.646;23.096;2023-07-29T06:17:35;8.60;;;4.07;;
61962;SDS011;47927;42.646;23.096;2023-07-29T06:20:01;8.52;;;3.60;;
61962;SDS011;47927;42.646;23.096;2023-07-29T06:22:27;8.45;;;3.80;;
61962;SDS011;47927;42.646;23.096;2023-07-29T06:24:53;10.93;;;4.10;;
61962;SDS011;47927;42.646;23.096;2023-07-29T06:27:18;11.30;;;4.55;;
61962;SDS011;47927;42.646;23.096;2023-07-29T06:29:44;7.90;;;4.03;;
61962;SDS011;47927;42.646;23.096;2023-07-29T06:32:09;10.25;;;5.00;;
61962;SDS011;47927;42.646;23.096;2023-07-29T06:34:35;11.63;;;4.30;;
61962;SDS011;47927;42.646;23.096;2023-07-29T06:37:02;9.85;;;4.50;;
61962;SDS011;47927;42.646;23.096;2023-07-29T06:39:27;11.25;;;4.78;;
61962;SDS011;47927;42.646;23.096;2023-07-29T06:41:53;8.10;;;4.03;;
61962;SDS011;47927;42.646;23.096;2023-07-29T06:44:19;10.13;;;4.80;;
61962;SDS011;47927;42.646;23.096;2023-07-29T06:46:44;10.13;;;4.78;;
61962;SDS011;47927;42.646;23.096;2023-07-29T06:49:10;14.05;;;5.75;;
61962;SDS011;47927;42.646;23.096;2023-07-29T06:51:35;12.68;;;4.93;;
61962;SDS011;47927;42.646;23.096;2023-07-29T06:54:01;12.02;;;5.50;;
61962;SDS011;47927;42.646;23.096;2023-07-29T06:56:28;17.08;;;5.03;;
61962;SDS011;47927;42.646;23.096;2023-07-29T06:58:53;7.35;;;4.35;;
61962;SDS011;47927;42.646;23.096;2023-07-29T07:01:19;15.75;;;5.20;;
61962;SDS011;47927;42.646;23.096;2023-07-29T07:03:44;25.40;;;6.72;;
61962;SDS011;47927;42.646;23.096;2023-07-29T07:06:10;21.15;;;5.82;;
61962;SDS011;47927;42.646;23.096;2023-07-29T07:08:35;24.98;;;5.68;;
61962;SDS011;47927;42.646;23.096;2023-07-29T07:11:01;35.60;;;7.72;;
61962;SDS011;47927;42.646;23.096;2023-07-29T07:13:26;29.20;;;6.28;;
61962;SDS011;47927;42.646;23.096;2023-07-29T07:15:55;30.17;;;7.70;;
61962;SDS011;47927;42.646;23.096;2023-07-29T07:18:21;25.65;;;6.38;;
61962;SDS011;47927;42.646;23.096;2023-07-29T07:20:49;23.08;;;5.72;;
61962;SDS011;47927;42.646;23.096;2023-07-29T07:23:16;20.90;;;4.57;;
61962;SDS011;47927;42.646;23.096;2023-07-29T07:28:08;14.32;;;4.40;;
61962;SDS011;47927;42.646;23.096;2023-07-29T07:30:34;15.52;;;4.68;;
61962;SDS011;47927;42.646;23.096;2023-07-29T07:33:00;9.10;;;3.92;;
61962;SDS011;47927;42.646;23.096;2023-07-29T07:35:26;9.50;;;3.40;;
61962;SDS011;47927;42.646;23.096;2023-07-29T07:37:52;12.55;;;3.47;;
61962;SDS011;47927;42.646;23.096;2023-07-29T07:40:17;9.13;;;3.80;;
61962;SDS011;47927;42.646;23.096;2023-07-29T07:42:43;13.75;;;4.15;;
61962;SDS011;47927;42.646;23.096;2023-07-29T07:45:09;9.25;;;3.10;;
61962;SDS011;47927;42.646;23.096;2023-07-29T07:47:34;20.65;;;3.65;;
61962;SDS011;47927;42.646;23.096;2023-07-29T07:50:00;9.27;;;3.40;;
61962;SDS011;47927;42.646;23.096;2023-07-29T07:52:25;8.55;;;2.90;;
61962;SDS011;47927;42.646;23.096;2023-07-29T07:54:51;7.07;;;3.10;;
61962;SDS011;47927;42.646;23.096;2023-07-29T07:57:19;8.27;;;3.20;;
61962;SDS011;47927;42.646;23.096;2023-07-29T07:59:46;6.93;;;2.95;;
61962;SDS011;47927;42.646;23.096;2023-07-29T08:02:12;4.45;;;2.17;;
61962;SDS011;47927;42.646;23.096;2023-07-29T08:04:37;4.82;;;3.05;;
61962;SDS011;47927;42.646;23.096;2023-07-29T08:07:03;3.47;;;2.00;;
61962;SDS011;47927;42.646;23.096;2023-07-29T08:09:28;3.70;;;1.77;;
61962;SDS011;47927;42.646;23.096;2023-07-29T08:11:54;3.53;;;2.10;;
61962;SDS011;47927;42.646;23.096;2023-07-29T08:14:19;5.35;;;1.80;;
61962;SDS011;47927;42.646;23.096;2023-07-29T08:16:45;2.88;;;1.80;;
61962;SDS011;47927;42.646;23.096;2023-07-29T08:19:10;2.05;;;1.30;;
61962;SDS011;47927;42.646;23.096;2023-07-29T08:21:36;4.47;;;1.17;;
61962;SDS011;47927;42.646;23.096;2023-07-29T08:24:02;2.60;;;1.50;;
61962;SDS011;47927;42.646;23.096;2023-07-29T08:26:28;6.43;;;1.70;;
61962;SDS011;47927;42.646;23.096;2023-07-29T08:28:54;7.72;;;1.95;;
61962;SDS011;47927;42.646;23.096;2023-07-29T08:31:19;4.63;;;1.50;;
61962;SDS011;47927;42.646;23.096;2023-07-29T08:33:45;3.60;;;1.63;;
61962;SDS011;47927;42.646;23.096;2023-07-29T08:36:11;2.88;;;1.58;;
61962;SDS011;47927;42.646;23.096;2023-07-29T08:38:36;3.78;;;1.50;;
61962;SDS011;47927;42.646;23.096;2023-07-29T08:43:44;2.42;;;1.40;;
61962;SDS011;47927;42.646;23.096;2023-07-29T08:46:22;2.22;;;1.30;;
61962;SDS011;47927;42.646;23.096;2023-07-29T08:48:48;3.42;;;1.27;;
61962;SDS011;47927;42.646;23.096;2023-07-29T08:51:14;2.80;;;1.10;;
61962;SDS011;47927;42.646;23.096;2023-07-29T08:56:08;1.48;;;1.08;;
61962;SDS011;47927;42.646;23.096;2023-07-29T08:58:34;1.65;;;1.13;;
61962;SDS011;47927;42.646;23.096;2023-07-29T09:01:00;2.08;;;1.33;;
61962;SDS011;47927;42.646;23.096;2023-07-29T09:03:26;1.58;;;1.10;;
61962;SDS011;47927;42.646;23.096;2023-07-29T09:05:51;2.97;;;1.00;;
61962;SDS011;47927;42.646;23.096;2023-07-29T09:08:18;2.13;;;0.90;;
61962;SDS011;47927;42.646;23.096;2023-07-29T09:10:44;1.48;;;1.00;;
61962;SDS011;47927;42.646;23.096;2023-07-29T09:13:10;3.10;;;1.13;;
61962;SDS011;47927;42.646;23.096;2023-07-29T09:15:36;1.10;;;0.90;;
61962;SDS011;47927;42.646;23.096;2023-07-29T09:18:15;1.50;;;0.98;;
61962;SDS011;47927;42.646;23.096;2023-07-29T09:20:41;2.42;;;1.20;;
61962;SDS011;47927;42.646;23.096;2023-07-29T09:23:08;1.58;;;0.90;;
61962;SDS011;47927;42.646;23.096;2023-07-29T09:25:37;2.00;;;1.02;;
61962;SDS011;47927;42.646;23.096;2023-07-29T09:28:09;1.65;;;0.98;;
61962;SDS011;47927;42.646;23.096;2023-07-29T09:30:39;1.80;;;0.85;;
61962;SDS011;47927;42.646;23.096;2023-07-29T09:33:05;2.05;;;0.90;;
61962;SDS011;47927;42.646;23.096;2023-07-29T09:35:32;1.08;;;0.70;;
61962;SDS011;47927;42.646;23.096;2023-07-29T09:37:58;1.70;;;1.07;;
61962;SDS011;47927;42.646;23.096;2023-07-29T09:40:24;2.75;;;1.10;;
61962;SDS011;47927;42.646;23.096;2023-07-29T09:45:26;4.05;;;1.27;;
61962;SDS011;47927;42.646;23.096;2023-07-29T09:47:53;2.20;;;1.08;;
61962;SDS011;47927;42.646;23.096;2023-07-29T09:50:23;3.17;;;1.10;;
61962;SDS011;47927;42.646;23.096;2023-07-29T09:52:48;1.92;;;1.00;;
61962;SDS011;47927;42.646;23.096;2023-07-29T09:55:20;3.70;;;1.10;;
61962;SDS011;47927;42.646;23.096;2023-07-29T09:57:52;2.55;;;1.20;;
61962;SDS011;47927;42.646;23.096;2023-07-29T10:00:22;1.50;;;1.20;;
61962;SDS011;47927;42.646;23.096;2023-07-29T10:02:48;3.92;;;0.90;;
61962;SDS011;47927;42.646;23.096;2023-07-29T10:05:14;2.08;;;1.00;;
61962;SDS011;47927;42.646;23.096;2023-07-29T10:07:40;1.05;;;0.70;;
61962;SDS011;47927;42.646;23.096;2023-07-29T10:10:06;1.02;;;0.80;;
61962;SDS011;47927;42.646;23.096;2023-07-29T10:12:33;2.00;;;1.00;;
61962;SDS011;47927;42.646;23.096;2023-07-29T10:15:04;1.40;;;0.93;;
61962;SDS011;47927;42.646;23.096;2023-07-29T10:17:31;3.58;;;0.85;;
61962;SDS011;47927;42.646;23.096;2023-07-29T10:19:59;1.10;;;0.77;;
61962;SDS011;47927;42.646;23.096;2023-07-29T10:22:28;1.77;;;1.13;;
61962;SDS011;47927;42.646;23.096;2023-07-29T10:24:59;2.25;;;0.80;;
61962;SDS011;47927;42.646;23.096;2023-07-29T10:27:31;1.88;;;0.80;;
61962;SDS011;47927;42.646;23.096;2023-07-29T10:30:23;1.17;;;0.77;;
61962;SDS011;47927;42.646;23.096;2023-07-29T10:32:49;2.42;;;1.00;;
61962;SDS011;47927;42.646;23.096;2023-07-29T10:35:16;1.48;;;0.95;;
61962;SDS011;47927;42.646;23.096;2023-07-29T10:37:41;1.40;;;0.80;;
61962;SDS011;47927;42.646;23.096;2023-07-29T10:40:08;2.15;;;0.95;;
61962;SDS011;47927;42.646;23.096;2023-07-29T10:42:35;1.15;;;0.80;;
61962;SDS011;47927;42.646;23.096;2023-07-29T10:45:17;2.05;;;0.95;;
61962;SDS011;47927;42.646;23.096;2023-07-29T10:47:47;1.23;;;0.88;;
61962;SDS011;47927;42.646;23.096;2023-07-29T10:50:17;1.52;;;0.88;;
61962;SDS011;47927;42.646;23.096;2023-07-29T10:52:46;1.52;;;1.02;;
61962;SDS011;47927;42.646;23.096;2023-07-29T10:58:08;1.60;;;0.85;;
61962;SDS011;47927;42.646;23.096;2023-07-29T11:00:38;1.40;;;0.70;;
61962;SDS011;47927;42.646;23.096;2023-07-29T11:03:06;2.55;;;1.00;;
61962;SDS011;47927;42.646;23.096;2023-07-29T11:05:46;1.60;;;1.10;;
61962;SDS011;47927;42.646;23.096;2023-07-29T11:08:16;2.00;;;1.00;;
61962;SDS011;47927;42.646;23.096;2023-07-29T11:11:06;2.25;;;1.10;;
61962;SDS011;47927;42.646;23.096;2023-07-29T11:13:36;2.83;;;0.85;;
61962;SDS011;47927;42.646;23.096;2023-07-29T11:16:02;2.42;;;1.10;;
61962;SDS011;47927;42.646;23.096;2023-07-29T11:18:30;4.20;;;1.00;;
61962;SDS011;47927;42.646;23.096;2023-07-29T11:20:59;1.30;;;0.90;;
61962;SDS011;47927;42.646;23.096;2023-07-29T11:23:31;2.13;;;1.02;;
61962;SDS011;47927;42.646;23.096;2023-07-29T11:25:58;1.60;;;1.00;;
61962;SDS011;47927;42.646;23.096;2023-07-29T11:28:25;3.72;;;1.00;;
61962;SDS011;47927;42.646;23.096;2023-07-29T11:30:51;4.15;;;1.08;;
61962;SDS011;47927;42.646;23.096;2023-07-29T11:33:20;1.98;;;1.00;;
61962;SDS011;47927;42.646;23.096;2023-07-29T11:35:47;1.33;;;0.95;;
61962;SDS011;47927;42.646;23.096;2023-07-29T11:38:16;1.65;;;1.00;;
61962;SDS011;47927;42.646;23.096;2023-07-29T11:40:53;3.67;;;0.95;;
61962;SDS011;47927;42.646;23.096;2023-07-29T11:43:19;1.60;;;1.00;;
61962;SDS011;47927;42.646;23.096;2023-07-29T11:45:45;1.88;;;1.10;;
61962;SDS011;47927;42.646;23.096;2023-07-29T11:48:10;2.88;;;0.90;;
61962;SDS011;47927;42.646;23.096;2023-07-29T11:50:36;2.45;;;0.90;;
61962;SDS011;47927;42.646;23.096;2023-07-29T11:53:02;4.28;;;1.25;;
61962;SDS011;47927;42.646;23.096;2023-07-29T11:55:28;1.60;;;1.10;;
61962;SDS011;47927;42.646;23.096;2023-07-29T11:57:53;1.95;;;0.95;;
61962;SDS011;47927;42.646;23.096;2023-07-29T12:00:19;1.75;;;1.17;;
61962;SDS011;47927;42.646;23.096;2023-07-29T12:02:46;2.65;;;1.20;;
61962;SDS011;47927;42.646;23.096;2023-07-29T12:05:14;4.88;;;1.40;;
61962;SDS011;47927;42.646;23.096;2023-07-29T12:07:41;1.65;;;1.10;;
61962;SDS011;47927;42.646;23.096;2023-07-29T12:10:09;2.47;;;1.10;;
61962;SDS011;47927;42.646;23.096;2023-07-29T12:12:38;2.22;;;1.05;;
61962;SDS011;47927;42.646;23.096;2023-07-29T12:15:09;3.95;;;1.33;;
61962;SDS011;47927;42.646;23.096;2023-07-29T12:17:39;3.88;;;1.25;;
61962;SDS011;47927;42.646;23.096;2023-07-29T12:20:07;2.00;;;1.20;;
61962;SDS011;47927;42.646;23.096;2023-07-29T12:22:34;1.37;;;0.97;;
61962;SDS011;47927;42.646;23.096;2023-07-29T12:24:59;2.80;;;1.20;;
61962;SDS011;47927;42.646;23.096;2023-07-29T12:27:26;2.10;;;1.30;;
61962;SDS011;47927;42.646;23.096;2023-07-29T12:30:10;2.45;;;1.20;;
61962;SDS011;47927;42.646;23.096;2023-07-29T12:32:43;1.63;;;0.98;;
61962;SDS011;47927;42.646;23.096;2023-07-29T12:35:12;3.20;;;1.17;;
61962;SDS011;47927;42.646;23.096;2023-07-29T12:37:38;2.70;;;1.33;;
61962;SDS011;47927;42.646;23.096;2023-07-29T12:40:29;3.40;;;1.50;;
61962;SDS011;47927;42.646;23.096;2023-07-29T12:42:54;2.80;;;1.33;;
61962;SDS011;47927;42.646;23.096;2023-07-29T12:45:20;3.78;;;1.35;;
61962;SDS011;47927;42.646;23.096;2023-07-29T12:47:48;3.72;;;1.30;;
61962;SDS011;47927;42.646;23.096;2023-07-29T12:50:13;2.35;;;1.17;;
61962;SDS011;47927;42.646;23.096;2023-07-29T12:52:39;3.40;;;1.13;;
61962;SDS011;47927;42.646;23.096;2023-07-29T12:55:05;2.35;;;1.15;;
61962;SDS011;47927;42.646;23.096;2023-07-29T12:57:33;3.13;;;1.20;;
61962;SDS011;47927;42.646;23.096;2023-07-29T12:59:59;2.40;;;1.35;;
61962;SDS011;47927;42.646;23.096;2023-07-29T13:02:24;2.25;;;1.30;;
61962;SDS011;47927;42.646;23.096;2023-07-29T13:04:50;1.92;;;1.10;;
61962;SDS011;47927;42.646;23.096;2023-07-29T13:07:15;3.80;;;1.30;;
61962;SDS011;47927;42.646;23.096;2023-07-29T13:09:41;2.00;;;1.27;;
61962;SDS011;47927;42.646;23.096;2023-07-29T13:12:06;2.38;;;1.30;;
61962;SDS011;47927;42.646;23.096;2023-07-29T13:14:32;2.15;;;1.23;;
61962;SDS011;47927;42.646;23.096;2023-07-29T13:16:57;3.25;;;1.25;;
61962;SDS011;47927;42.646;23.096;2023-07-29T13:19:23;2.60;;;1.25;;
61962;SDS011;47927;42.646;23.096;2023-07-29T13:21:48;7.53;;;1.30;;
61962;SDS011;47927;42.646;23.096;2023-07-29T13:24:14;2.53;;;1.45;;
61962;SDS011;47927;42.646;23.096;2023-07-29T13:26:58;2.28;;;1.30;;
61962;SDS011;47927;42.646;23.096;2023-07-29T13:29:23;3.63;;;2.00;;
61962;SDS011;47927;42.646;23.096;2023-07-29T13:31:49;2.47;;;1.30;;
61962;SDS011;47927;42.646;23.096;2023-07-29T13:34:14;2.25;;;1.30;;
61962;SDS011;47927;42.646;23.096;2023-07-29T13:36:40;2.75;;;1.10;;
61962;SDS011;47927;42.646;23.096;2023-07-29T13:39:05;5.43;;;1.20;;
61962;SDS011;47927;42.646;23.096;2023-07-29T13:41:31;4.07;;;1.30;;
61962;SDS011;47927;42.646;23.096;2023-07-29T13:43:56;3.95;;;1.48;;
61962;SDS011;47927;42.646;23.096;2023-07-29T13:46:22;2.97;;;1.27;;
61962;SDS011;47927;42.646;23.096;2023-07-29T13:48:47;2.22;;;1.30;;
61962;SDS011;47927;42.646;23.096;2023-07-29T13:51:13;4.13;;;1.33;;
61962;SDS011;47927;42.646;23.096;2023-07-29T13:53:38;2.95;;;1.40;;
61962;SDS011;47927;42.646;23.096;2023-07-29T13:56:04;3.97;;;1.55;;
61962;SDS011;47927;42.646;23.096;2023-07-29T13:58:30;2.65;;;1.40;;
61962;SDS011;47927;42.646;23.096;2023-07-29T14:00:55;2.38;;;1.30;;
61962;SDS011;47927;42.646;23.096;2023-07-29T14:03:21;1.98;;;1.30;;
61962;SDS011;47927;42.646;23.096;2023-07-29T14:05:46;3.13;;;1.80;;
61962;SDS011;47927;42.646;23.096;2023-07-29T14:08:12;6.55;;;1.60;;
61962;SDS011;47927;42.646;23.096;2023-07-29T14:10:38;2.78;;;1.50;;
61962;SDS011;47927;42.646;23.096;2023-07-29T14:13:03;4.03;;;1.63;;
61962;SDS011;47927;42.646;23.096;2023-07-29T14:15:29;2.40;;;1.45;;
61962;SDS011;47927;42.646;23.096;2023-07-29T14:17:54;7.97;;;2.10;;
61962;SDS011;47927;42.646;23.096;2023-07-29T14:20:20;2.72;;;1.67;;
61962;SDS011;47927;42.646;23.096;2023-07-29T14:22:45;4.65;;;1.90;;
61962;SDS011;47927;42.646;23.096;2023-07-29T14:25:11;2.65;;;1.55;;
61962;SDS011;47927;42.646;23.096;2023-07-29T14:27:36;2.78;;;1.60;;
61962;SDS011;47927;42.646;23.096;2023-07-29T14:30:02;2.90;;;1.70;;
61962;SDS011;47927;42.646;23.096;2023-07-29T14:32:29;3.90;;;1.60;;
61962;SDS011;47927;42.646;23.096;2023-07-29T14:34:55;4.32;;;1.70;;
61962;SDS011;47927;42.646;23.096;2023-07-29T14:37:20;6.35;;;1.80;;
61962;SDS011;47927;42.646;23.096;2023-07-29T14:39:46;2.72;;;1.60;;
61962;SDS011;47927;42.646;23.096;2023-07-29T14:42:11;4.20;;;1.60;;
61962;SDS011;47927;42.646;23.096;2023-07-29T14:44:38;2.22;;;1.40;;
61962;SDS011;47927;42.646;23.096;2023-07-29T14:47:04;3.00;;;1.70;;
61962;SDS011;47927;42.646;23.096;2023-07-29T14:49:29;4.93;;;1.60;;